Skip to Main Content
SEARCH:
Location Air RH Dwp Precip Type Wind Speed Wind Gust Direction Pavement Temperature Date/Time
Hatem Bridge US 40 E/B 78 69 67 None - - No Data Available 95 - 95 8/19/2017 10:51:00 AM
I-270 at I-370 79 71 69 None Calm Calm W 95 - 99 8/19/2017 10:50:00 AM
I-270 at MD-109 82 72 72 None Calm 7 mph NW 101 - 99 8/19/2017 10:50:00 AM
I-495 at American Legion Bridge 81 71 71 None Calm 6 mph N 101 - 102 8/19/2017 10:50:00 AM
I-68 at MD-219 69 86 64 None 11 mph 20 mph W 87 - 90 8/19/2017 10:50:00 AM
I-68 at Savage Mt - - - No Data Available - - No Data Available -
I-68 at Sideling Hill 78 77 70 None 4 mph 8 mph NE 100 - 101 8/19/2017 10:50:00 AM
I-68 at WV Line 71 76 63 None 8 mph 16 mph W 87 - 91 8/19/2017 10:50:00 AM
I-695 at I-83 82 62 68 None Calm 8 mph W 103 - 99 8/19/2017 10:50:00 AM
I-70 at Fred-Wash Co. - - - No Data Available - - No Data Available -
I-70 at I-695 82 63 68 None Calm 8 mph W 100 - 105 8/19/2017 10:50:00 AM
I-70 at I-81 81 63 68 None 4 mph 11 mph W - 8/19/2017 10:50:00 AM
I-70 at MD-27 80 70 70 None Calm Calm N 102 - 104 8/19/2017 10:50:00 AM
I-70 at MD-32 80 64 67 None Calm 7 mph W 106 - 98 8/19/2017 10:50:00 AM
I-83 at MD-137 81 69 70 None Calm 7 mph NW 100 - 100 8/19/2017 10:50:00 AM
I-95 at I-695 NE 81 60 67 None Calm 5 mph E 103 - 98 8/19/2017 10:52:00 AM
I-95 at Patuxent River 83 67 71 None 4 mph 10 mph W 102 - 99 8/19/2017 10:50:00 AM
I-95 at Tydings Bridge 82 69 71 None Calm Calm NW 96 - 96 8/19/2017 10:50:00 AM
I-95/495 at I-295 89 52 69 None 4 mph 12 mph N 102 - 86 8/19/2017 10:50:00 AM
I-97 at MD-100 85 56 68 None 9 mph 15 mph NW 100 - 103 8/19/2017 10:50:00 AM
I-97 at MD-32 81 63 68 None 12 mph 16 mph N 102 - 93 8/19/2017 10:50:00 AM
MD 20 at MD 21 82 67 70 None Calm 5 mph N 109 - 109 8/19/2017 10:50:00 AM
MD 231 at Patuxent River 82 71 72 None 5 mph 7 mph NE 100 - 102 8/19/2017 10:50:00 AM
MD 260 at Cox Rd 81 76 72 None Calm 4 mph N 106 - 106 8/19/2017 10:50:00 AM
MD-135 at Salt Dome 69 83 64 None 6 mph 14 mph W 87 - 87 8/19/2017 10:50:00 AM
MD-140 at MD-97 79 68 67 None 4 mph 9 mph NW 99 - 99 8/19/2017 10:50:00 AM
MD-200 EB at Bonifant Rd 81 66 68 None 7 mph 10 mph NW 107 - 92 8/19/2017 10:51:00 AM
MD-200 WB at Muncaster Mill Rd 80 65 68 None Calm 7 mph N 101 - 103 8/19/2017 10:51:00 AM
MD-213 at Sassafras River 82 72 73 None Calm 7 mph N 102 - 102 8/19/2017 10:50:00 AM
MD-24 at Rock St Park 74 100 74 None Calm Calm N 97 - 97 8/19/2017 10:50:00 AM
MD-30 at PA Line 76 79 69 None 6 mph 11 mph N 94 - 94 8/19/2017 10:50:00 AM
MD-301 at MD-305 81 67 69 None Calm 4 mph NE 104 - 109 8/19/2017 10:50:00 AM
MD-33 at Knapps Narrows Drawbridge 81 69 70 None 7 mph 13 mph NW 103 - 103 8/19/2017 10:50:00 AM
MD-344 at MD-224 81 66 69 None Calm 7 mph NW - 8/19/2017 10:50:00 AM
MD-4 at Patuxent River 82 75 74 None - - No Data Available 97 - 97 8/19/2017 10:50:00 AM
MD-404 at Choptank River 81 74 72 None 4 mph 9 mph NE 101 - 103 8/19/2017 10:50:00 AM
MD-43 at MD-150 82 67 70 None Calm 8 mph NW 101 - 99 8/19/2017 10:50:00 AM
MD-51 at Oldtown Salt Dome 79 71 69 None 6 mph 15 mph W 105 - 105 8/19/2017 10:50:00 AM
MD-64 at MD-418 77 74 69 None 5 mph 9 mph W 104 - 105 8/19/2017 10:50:00 AM
US-1 at Baltimore / Harford Co. Line 79 72 69 None Calm 8 mph W 97 - 97 8/19/2017 10:50:00 AM
US-1 at Conowingo Dam 81 75 72 None Calm 4 mph N 80 - 80 8/19/2017 10:50:00 AM
US-13 at US-113 82 70 72 None 7 mph 12 mph N 111 - 114 8/19/2017 10:50:00 AM
US-13 at US-50 - - - No Data Available - - No Data Available -
US-15 at MD-140 81 61 66 None 4 mph 10 mph W 103 - 98 8/19/2017 10:50:00 AM
US-301 at MD-5 82 65 70 None 4 mph 8 mph W 100 - 107 8/19/2017 10:50:00 AM
US-301 at Potomac 89 62 74 None 5 mph 8 mph NW 102 - 103 8/19/2017 10:50:00 AM
US-301 on HWN Bridge 80 67 68 None 9 mph 11 mph NW 96 - 96 8/19/2017 10:54:00 AM
US-340 at MD-180 80 69 69 None 7 mph 11 mph W 101 - 101 8/19/2017 10:50:00 AM
US-50 at Choptank 83 69 72 None 6 mph 12 mph N 100 - 101 8/19/2017 10:50:00 AM
US-50 at I-95 83 67 71 None Calm 8 mph N 100 - 103 8/19/2017 10:50:00 AM
US-50 at MD-2 80 70 69 None Calm 6 mph N 86 - 95 8/19/2017 10:45:00 AM
US-50 at MD-331 83 67 71 None 6 mph 8 mph N 100 - 102 8/19/2017 10:50:00 AM
US-50 at OC Drawbridge 81 77 73 None 8 mph 11 mph NW 99 - 99 8/19/2017 10:50:00 AM
US-50 at Table Rock Rd 66 97 65 None Calm 7 mph W 78 - 78 8/19/2017 10:50:00 AM
US-50 Kent Narrow Bridge 82 74 73 None 4 mph 7 mph NW 97 - 99 8/19/2017 10:50:00 AM
WPL Pier 31 - - - No Data Available - - No Data Available -
Location Air RH Dwp Precip Type Wind Speed Wind Gust Direction Pavement Temperature Date/Time